Time,TemperatureF,DewpointF,PressureIn,WindDirection,WindDirectionDegrees,WindSpeedMPH,WindSpeedGustMPH,Humidity,HourlyPrecipIn,Conditions,Clouds,dailyrainin,SoftwareType,DateUTC
2013-08-01 00:02:00,83.0,67.0,-100.00,North,-999,-999.0,-999.0,58,-99.99,,,0.00,,2013-08-01 05:02:00,
2013-08-01 00:23:00,83.0,62.0,-100.00,North,-999,-999.0,-999.0,48,0.00,,,0.00,,2013-08-01 05:23:00,
2013-08-01 00:33:00,83.0,60.0,-100.00,North,-999,-999.0,-999.0,46,0.00,,,0.00,,2013-08-01 05:33:00,
2013-08-01 00:53:00,83.0,62.0,-100.00,North,-999,-999.0,-999.0,49,0.00,,,0.00,,2013-08-01 05:53:00,
2013-08-01 01:02:00,82.0,60.0,-100.00,North,-999,-999.0,-999.0,48,0.00,,,0.00,,2013-08-01 06:02:00,
2013-08-01 01:22:00,83.0,60.0,-100.00,North,-999,-999.0,-999.0,46,0.00,,,0.00,,2013-08-01 06:22:00,
2013-08-01 01:33:00,84.0,60.0,-100.00,North,-999,-999.0,-999.0,44,0.00,,,0.00,,2013-08-01 06:33:00,
2013-08-01 01:52:00,85.0,63.0,-100.00,North,-999,-999.0,-999.0,48,0.00,,,0.00,,2013-08-01 06:52:00,
2013-08-01 02:02:00,84.0,65.0,-100.00,North,-999,-999.0,-999.0,52,0.00,,,0.00,,2013-08-01 07:02:00,
2013-08-01 02:23:00,84.0,66.0,-100.00,North,-999,-999.0,-999.0,54,0.00,,,0.00,,2013-08-01 07:23:00,
2013-08-01 02:32:00,83.0,66.0,-100.00,North,-999,-999.0,-999.0,56,0.00,,,0.00,,2013-08-01 07:32:00,
2013-08-01 02:53:00,83.0,67.0,-100.00,North,-999,-999.0,-999.0,59,0.00,,,0.00,,2013-08-01 07:53:00,
2013-08-01 03:04:00,83.0,67.0,-100.00,North,-999,-999.0,-999.0,59,0.00,,,0.00,,2013-08-01 08:04:00,
2013-08-01 03:24:00,81.0,68.0,-100.00,North,-999,-999.0,-999.0,63,0.00,,,0.00,,2013-08-01 08:24:00,
2013-08-01 03:37:00,82.0,68.0,-100.00,North,-999,-999.0,-999.0,62,0.00,,,0.00,,2013-08-01 08:37:00,
2013-08-01 03:58:00,82.0,68.0,-100.00,North,-999,-999.0,-999.0,64,0.00,,,0.00,,2013-08-01 08:58:00,
2013-08-01 04:57:00,79.0,71.0,-100.00,North,-999,-999.0,-999.0,74,0.00,,,0.00,,2013-08-01 09:57:00,
2013-08-01 05:10:00,79.0,70.0,-100.00,North,-999,-999.0,-999.0,74,0.00,,,0.00,,2013-08-01 10:10:00,
2013-08-01 05:40:00,78.0,72.0,-100.00,North,-999,-999.0,-999.0,84,0.00,,,0.00,,2013-08-01 10:40:00,
2013-08-01 06:12:00,76.0,73.0,-100.00,North,-999,-999.0,-999.0,88,0.00,,,0.00,,2013-08-01 11:12:00,
2013-08-01 06:31:00,76.0,70.0,-100.00,North,-999,-999.0,-999.0,82,0.00,,,0.00,,2013-08-01 11:31:00,
2013-08-01 06:40:00,77.0,71.0,-100.00,North,-999,-999.0,-999.0,82,0.00,,,0.00,,2013-08-01 11:40:00,
2013-08-01 06:59:00,76.0,70.0,-100.00,North,-999,-999.0,-999.0,82,0.00,,,0.00,,2013-08-01 11:59:00,
2013-08-01 07:12:00,76.0,72.0,-100.00,North,-999,-999.0,-999.0,88,0.00,,,0.00,,2013-08-01 12:12:00,
2013-08-01 07:30:00,75.0,74.0,-100.00,North,-999,-999.0,-999.0,97,0.00,,,0.00,,2013-08-01 12:30:00,
2013-08-01 07:56:00,76.0,69.0,-100.00,North,-999,-999.0,-999.0,77,0.00,,,0.00,,2013-08-01 12:56:00,
2013-08-01 08:10:00,77.0,68.0,-100.00,North,-999,-999.0,-999.0,73,0.00,,,0.00,,2013-08-01 13:10:00,
2013-08-01 08:40:00,78.0,74.0,-100.00,North,-999,-999.0,-999.0,88,0.00,,,0.00,,2013-08-01 13:40:00,
2013-08-01 08:58:00,79.0,74.0,-100.00,North,-999,-999.0,-999.0,84,0.00,,,0.00,,2013-08-01 13:58:00,
2013-08-01 09:12:00,80.0,72.0,-100.00,North,-999,-999.0,-999.0,75,0.00,,,0.00,,2013-08-01 14:12:00,
2013-08-01 10:11:00,83.0,69.0,-100.00,North,-999,-999.0,-999.0,61,0.00,,,0.00,,2013-08-01 15:11:00,
2013-08-01 10:27:00,84.0,69.0,-100.00,North,-999,-999.0,-999.0,60,0.00,,,0.00,,2013-08-01 15:27:00,
2013-08-01 10:38:00,85.0,70.0,-100.00,North,-999,-999.0,-999.0,60,0.00,,,0.00,,2013-08-01 15:38:00,
2013-08-01 11:27:00,89.0,67.0,-100.00,North,-999,-999.0,-999.0,49,0.00,,,0.00,,2013-08-01 16:27:00,
2013-08-01 11:39:00,89.0,67.0,-100.00,North,-999,-999.0,-999.0,48,0.00,,,0.00,,2013-08-01 16:39:00,
2013-08-01 11:53:00,89.0,67.0,-100.00,North,-999,-999.0,-999.0,48,0.00,,,0.00,,2013-08-01 16:53:00,
2013-08-01 12:11:00,90.0,67.0,-100.00,North,-999,-999.0,-999.0,47,0.00,,,0.00,,2013-08-01 17:11:00,
2013-08-01 12:29:00,90.0,68.0,-100.00,North,-999,-999.0,-999.0,48,0.00,,,0.00,,2013-08-01 17:29:00,
2013-08-01 12:58:00,91.0,66.0,-100.00,North,-999,-999.0,-999.0,44,0.00,,,0.00,,2013-08-01 17:58:00,
2013-08-01 13:11:00,92.0,67.0,-100.00,North,-999,-999.0,-999.0,44,0.00,,,0.00,,2013-08-01 18:11:00,
2013-08-01 13:29:00,93.0,62.0,-100.00,North,-999,-999.0,-999.0,36,0.00,,,0.00,,2013-08-01 18:29:00,
2013-08-01 13:39:00,93.0,64.0,-100.00,North,-999,-999.0,-999.0,38,0.00,,,0.00,,2013-08-01 18:39:00,
2013-08-01 13:54:00,94.0,66.0,-100.00,North,-999,-999.0,-999.0,40,0.00,,,0.00,,2013-08-01 18:54:00,
2013-08-01 14:08:00,93.0,68.0,-100.00,North,-999,-999.0,-999.0,43,0.00,,,-99.99,,2013-08-01 19:08:00,
2013-08-01 14:38:00,97.0,60.0,-100.00,North,-999,-999.0,-999.0,30,0.00,,,0.00,,2013-08-01 19:38:00,
2013-08-01 15:10:00,97.0,58.0,-100.00,North,-999,-999.0,-999.0,27,0.00,,,0.00,,2013-08-01 20:10:00,
2013-08-01 15:25:00,97.0,61.0,-100.00,North,-999,-999.0,-999.0,30,0.00,,,0.00,,2013-08-01 20:25:00,
2013-08-01 15:37:00,97.0,61.0,-100.00,North,-999,-999.0,-999.0,30,0.00,,,0.00,,2013-08-01 20:37:00,
2013-08-01 15:54:00,97.0,60.0,-100.00,North,-999,-999.0,-999.0,29,0.00,,,0.00,,2013-08-01 20:54:00,
2013-08-01 16:03:00,99.0,63.0,-100.00,North,-999,-999.0,-999.0,31,0.00,,,0.00,,2013-08-01 21:03:00,
2013-08-01 16:25:00,99.0,61.0,-100.00,North,-999,-999.0,-999.0,29,0.00,,,0.00,,2013-08-01 21:25:00,
2013-08-01 16:34:00,99.0,61.0,-100.00,North,-999,-999.0,-999.0,29,0.00,,,0.00,,2013-08-01 21:34:00,
2013-08-01 16:53:00,99.0,60.0,-100.00,North,-999,-999.0,-999.0,28,0.00,,,0.00,,2013-08-01 21:53:00,
2013-08-01 17:23:00,100.0,61.0,-100.00,North,-999,-999.0,-999.0,28,0.00,,,0.00,,2013-08-01 22:23:00,
2013-08-01 17:35:00,100.0,62.0,-100.00,North,-999,-999.0,-999.0,29,0.00,,,0.00,,2013-08-01 22:35:00,
2013-08-01 17:54:00,100.0,62.0,-100.00,North,-999,-999.0,-999.0,29,0.00,,,0.00,,2013-08-01 22:54:00,
2013-08-01 18:07:00,99.0,60.0,-100.00,North,-999,-999.0,-999.0,28,0.00,,,0.00,,2013-08-01 23:07:00,
2013-08-01 18:25:00,100.0,62.0,-100.00,North,-999,-999.0,-999.0,29,0.00,,,0.00,,2013-08-01 23:25:00,
2013-08-01 18:32:00,100.0,62.0,-100.00,North,-999,-999.0,-999.0,29,0.00,,,0.00,,2013-08-01 23:32:00,
2013-08-01 18:55:00,99.0,61.0,-100.00,North,-999,-999.0,-999.0,29,0.00,,,0.00,,2013-08-01 23:55:00,
2013-08-01 19:07:00,99.0,61.0,-100.00,North,-999,-999.0,-999.0,29,0.00,,,0.00,,2013-08-02 00:07:00,
2013-08-01 19:26:00,99.0,61.0,-100.00,North,-999,-999.0,-999.0,29,0.00,,,0.00,,2013-08-02 00:26:00,
2013-08-01 19:36:00,98.0,61.0,-100.00,North,-999,-999.0,-999.0,30,0.00,,,0.00,,2013-08-02 00:36:00,
2013-08-01 19:54:00,97.0,61.0,-100.00,North,-999,-999.0,-999.0,30,0.00,,,0.00,,2013-08-02 00:54:00,
2013-08-01 20:03:00,97.0,60.0,-100.00,North,-999,-999.0,-999.0,30,0.00,,,0.00,,2013-08-02 01:03:00,
2013-08-01 20:26:00,96.0,61.0,-100.00,North,-999,-999.0,-999.0,31,0.00,,,0.00,,2013-08-02 01:26:00,
2013-08-01 20:54:00,94.0,61.0,-100.00,North,-999,-999.0,-999.0,34,0.00,,,0.00,,2013-08-02 01:54:00,
2013-08-01 21:07:00,93.0,61.0,-100.00,North,-999,-999.0,-999.0,35,0.00,,,0.00,,2013-08-02 02:07:00,
2013-08-01 21:26:00,92.0,61.0,-100.00,North,-999,-999.0,-999.0,36,0.00,,,0.00,,2013-08-02 02:26:00,
2013-08-01 21:34:00,92.0,61.0,-100.00,North,-999,-999.0,-999.0,36,0.00,,,0.00,,2013-08-02 02:34:00,
2013-08-01 21:52:00,92.0,62.0,-100.00,North,-999,-999.0,-999.0,37,0.00,,,0.00,,2013-08-02 02:52:00,
2013-08-01 22:07:00,91.0,62.0,-100.00,North,-999,-999.0,-999.0,39,0.00,,,-99.99,,2013-08-02 03:07:00,
2013-08-01 22:23:00,89.0,63.0,-100.00,North,-999,-999.0,-999.0,42,0.00,,,0.00,,2013-08-02 03:23:00,
2013-08-01 22:36:00,89.0,62.0,-100.00,North,-999,-999.0,-999.0,41,0.00,,,0.00,,2013-08-02 03:36:00,
2013-08-01 22:55:00,89.0,63.0,-100.00,North,-999,-999.0,-999.0,41,0.00,,,0.00,,2013-08-02 03:55:00,
2013-08-01 23:02:00,89.0,63.0,-100.00,North,-999,-999.0,-999.0,42,0.00,,,-99.99,,2013-08-02 04:02:00,
2013-08-01 23:22:00,88.0,63.0,-100.00,North,-999,-999.0,-999.0,43,0.00,,,0.00,,2013-08-02 04:22:00,
2013-08-01 23:33:00,87.0,71.0,-100.00,North,-999,-999.0,-999.0,58,0.00,,,0.00,,2013-08-02 04:33:00,
2013-08-01 23:53:00,86.0,63.0,-100.00,North,-999,-999.0,-999.0,46,0.00,,,0.00,,2013-08-02 04:53:00,